createdAt,value
2023-05-04T00:00:05.992Z,72.51
2023-05-04T00:01:05.633Z,72.41
2023-05-04T00:02:05.591Z,72.20
2023-05-04T00:03:05.768Z,72.10
2023-05-04T00:04:05.750Z,72.20
2023-05-04T00:05:05.572Z,72.51
2023-05-04T00:06:05.552Z,72.72
2023-05-04T00:07:05.567Z,72.61
2023-05-04T00:08:05.525Z,72.92
2023-05-04T00:09:05.548Z,72.92
2023-05-04T00:10:05.746Z,72.72
2023-05-04T00:11:05.541Z,72.85
2023-05-04T00:12:05.504Z,73.16
2023-05-04T00:13:05.542Z,73.68
2023-05-04T00:14:05.479Z,73.88
2023-05-04T00:15:05.447Z,74.29
2023-05-04T00:16:05.506Z,73.98
2023-05-04T00:17:05.447Z,73.71
2023-05-04T00:18:05.470Z,74.33
2023-05-04T00:19:05.408Z,74.63
2023-05-04T00:20:05.650Z,74.63
2023-05-04T00:21:05.382Z,74.63
2023-05-04T00:22:05.404Z,74.84
2023-05-04T00:23:05.376Z,74.84
2023-05-04T00:24:05.390Z,74.87
2023-05-04T00:25:05.351Z,75.39
2023-05-04T00:26:05.347Z,75.80
2023-05-04T00:27:05.321Z,76.01
2023-05-04T00:28:05.336Z,75.70
2023-05-04T00:29:05.299Z,76.11
2023-05-04T00:30:05.525Z,76.11
2023-05-04T00:31:05.296Z,76.01
2023-05-04T00:32:05.385Z,76.21
2023-05-04T00:33:05.293Z,76.01
2023-05-04T00:34:05.278Z,75.80
2023-05-04T00:35:05.246Z,75.49
2023-05-04T00:36:05.254Z,75.52
2023-05-04T00:37:05.221Z,75.94
2023-05-04T00:38:05.216Z,75.84
2023-05-04T00:39:05.201Z,76.14
2023-05-04T00:40:05.463Z,76.35
2023-05-04T00:41:05.179Z,76.25
2023-05-04T00:42:05.201Z,76.45
2023-05-04T00:43:05.158Z,76.39
2023-05-04T00:44:05.167Z,77.00
2023-05-04T00:45:05.126Z,77.00
2023-05-04T00:46:05.146Z,77.42
2023-05-04T00:47:05.154Z,77.21
2023-05-04T00:48:05.178Z,77.31
2023-05-04T00:49:05.082Z,77.31
2023-05-04T00:50:05.377Z,77.21
2023-05-04T00:51:05.064Z,76.79
2023-05-04T00:52:05.094Z,76.49
2023-05-04T00:53:05.041Z,76.70
2023-05-04T00:54:05.064Z,76.70
2023-05-04T00:55:05.020Z,76.79
2023-05-04T00:56:05.047Z,76.90
2023-05-04T00:57:05.012Z,77.42
2023-05-04T00:58:05.016Z,77.14
2023-05-04T00:59:04.987Z,77.76
2023-05-04T01:00:05.316Z,78.28
2023-05-04T01:01:05.008Z,77.66
2023-05-04T01:02:04.959Z,77.76
2023-05-04T01:03:04.977Z,78.07
2023-05-04T01:04:05.046Z,78.21
2023-05-04T01:05:04.910Z,78.41
2023-05-04T01:06:04.921Z,78.31
2023-05-04T01:07:04.904Z,78.31
2023-05-04T01:08:04.904Z,78.72
2023-05-04T01:09:04.927Z,78.93
2023-05-04T01:10:05.237Z,78.62
2023-05-04T01:11:04.858Z,78.62
2023-05-04T01:12:04.879Z,79.14
2023-05-04T01:13:04.851Z,79.24
2023-05-04T01:14:04.833Z,79.14
2023-05-04T01:15:04.808Z,78.83
2023-05-04T01:16:11.357Z,79.14
2023-05-04T01:17:04.836Z,78.97
2023-05-04T01:18:04.875Z,79.07
2023-05-04T01:19:04.761Z,79.58
2023-05-04T01:20:05.026Z,80.20
2023-05-04T01:21:04.736Z,79.83
2023-05-04T01:22:04.759Z,79.93
2023-05-04T01:23:04.732Z,79.93
2023-05-04T01:24:04.737Z,79.72
2023-05-04T01:25:04.705Z,80.14
2023-05-04T01:26:04.742Z,80.14
2023-05-04T01:27:04.679Z,80.04
2023-05-04T01:28:04.689Z,80.24
2023-05-04T01:29:04.656Z,80.86
2023-05-04T01:30:04.885Z,80.65
2023-05-04T01:31:04.768Z,80.34
2023-05-04T01:32:04.660Z,80.86
2023-05-04T01:33:04.685Z,80.76
2023-05-04T01:34:04.635Z,80.44
2023-05-04T01:35:04.593Z,80.44
2023-05-04T01:36:04.664Z,80.14
2023-05-04T01:37:04.579Z,80.55
2023-05-04T01:38:04.600Z,80.69
2023-05-04T01:39:04.548Z,81.07
2023-05-04T01:40:04.761Z,81.41
2023-05-04T01:41:04.537Z,81.00
2023-05-04T01:42:04.540Z,81.10
2023-05-04T01:43:04.507Z,81.31
2023-05-04T01:44:04.535Z,81.21
2023-05-04T01:45:04.499Z,81.41
2023-05-04T01:46:04.530Z,81.41
2023-05-04T01:47:04.465Z,81.00
2023-05-04T01:48:04.504Z,80.48
2023-05-04T01:49:04.438Z,80.48
2023-05-04T01:50:04.635Z,80.07
2023-05-04T01:51:04.423Z,80.48
2023-05-04T01:52:04.435Z,80.79
2023-05-04T01:53:04.391Z,80.48
2023-05-04T01:54:04.401Z,80.69
2023-05-04T01:55:04.391Z,80.58
2023-05-04T01:56:04.433Z,80.90
2023-05-04T01:57:04.363Z,81.31
2023-05-04T01:58:04.377Z,81.00
2023-05-04T01:59:04.323Z,80.90
2023-05-04T02:00:04.588Z,81.21
2023-05-04T02:01:04.307Z,81.62
2023-05-04T02:02:04.381Z,81.41
2023-05-04T02:03:04.333Z,81.93
2023-05-04T02:04:04.451Z,82.17
2023-05-04T02:05:04.277Z,82.17
2023-05-04T02:06:04.290Z,82.59
2023-05-04T02:07:04.257Z,82.69
2023-05-04T02:08:04.249Z,82.28
2023-05-04T02:09:04.241Z,82.69
2023-05-04T02:10:04.528Z,82.89
2023-05-04T02:11:04.199Z,82.69
2023-05-04T02:12:04.200Z,82.59
2023-05-04T02:13:04.245Z,82.73
2023-05-04T02:14:04.184Z,82.83
2023-05-04T02:15:04.167Z,82.62
2023-05-04T02:16:04.220Z,82.93
2023-05-04T02:17:04.135Z,83.55
2023-05-04T02:18:04.168Z,83.25
2023-05-04T02:19:04.114Z,82.93
2023-05-04T02:20:04.316Z,82.93
2023-05-04T02:34:03.810Z,83.49
2023-05-04T02:35:04.767Z,84.00
2023-05-04T02:36:04.793Z,83.80
2023-05-04T02:37:07.112Z,83.90
2023-05-04T02:38:04.768Z,83.90
2023-05-04T02:39:04.764Z,84.00
2023-05-04T02:40:04.968Z,83.80
2023-05-04T02:41:04.717Z,84.00
2023-05-04T02:42:04.729Z,83.70
2023-05-04T02:43:04.696Z,84.00
2023-05-04T02:44:04.718Z,84.05
2023-05-04T02:45:04.661Z,84.25
2023-05-04T02:46:04.717Z,84.56
2023-05-04T02:47:04.641Z,84.87
2023-05-04T02:48:04.712Z,84.77
2023-05-04T02:49:04.639Z,84.87
2023-05-04T02:50:04.972Z,84.97
2023-05-04T02:51:04.646Z,85.18
2023-05-04T02:52:04.612Z,85.18
2023-05-04T02:53:04.578Z,84.77
2023-05-04T02:54:04.606Z,84.25
2023-05-04T02:55:04.557Z,84.25
2023-05-04T02:56:04.623Z,85.22
2023-05-04T02:57:04.547Z,85.22
2023-05-04T02:58:04.547Z,85.63
2023-05-04T02:59:04.521Z,85.74
2023-05-04T03:00:04.776Z,85.53
2023-05-04T03:01:04.560Z,85.84
2023-05-04T03:02:04.523Z,86.05
2023-05-04T03:03:04.490Z,86.05
2023-05-04T03:04:04.587Z,86.15
2023-05-04T03:05:04.458Z,86.36
2023-05-04T03:06:04.476Z,86.25
2023-05-04T03:07:04.444Z,86.01
2023-05-04T03:08:04.453Z,85.49
2023-05-04T03:09:04.443Z,85.28
2023-05-04T03:10:04.622Z,85.60
2023-05-04T03:11:04.392Z,85.60
2023-05-04T03:12:04.425Z,85.80
2023-05-04T03:13:04.421Z,85.39
2023-05-04T03:14:04.378Z,84.97
2023-05-04T03:15:04.370Z,84.36
2023-05-04T03:16:04.349Z,84.25
2023-05-04T03:17:04.341Z,84.45
2023-05-04T03:18:04.410Z,84.56
2023-05-04T03:19:04.297Z,84.45
2023-05-04T03:20:04.379Z,84.25
2023-05-04T03:21:04.319Z,84.05
2023-05-04T03:22:04.314Z,83.73
2023-05-04T03:23:04.305Z,83.73
2023-05-04T03:24:04.273Z,83.84
2023-05-04T03:25:04.234Z,83.73
2023-05-04T03:26:04.250Z,83.94
2023-05-04T03:27:04.236Z,83.73
2023-05-04T03:28:04.200Z,83.63
2023-05-04T03:29:04.172Z,83.11
2023-05-04T03:30:04.355Z,83.11
2023-05-04T03:31:04.150Z,83.63
2023-05-04T03:32:04.217Z,83.94
2023-05-04T03:33:04.220Z,84.05
2023-05-04T03:34:04.107Z,83.94
2023-05-04T03:35:04.226Z,84.05
2023-05-04T03:36:04.104Z,84.25
2023-05-04T03:37:04.083Z,84.15
2023-05-04T03:38:04.063Z,84.25
2023-05-04T03:39:04.083Z,84.60
2023-05-04T03:40:04.283Z,84.50
2023-05-04T03:41:04.044Z,84.87
2023-05-04T03:42:04.009Z,85.22
2023-05-04T03:43:04.024Z,85.11
2023-05-04T03:44:03.990Z,85.53
2023-05-04T03:45:04.413Z,85.53
2023-05-04T03:46:04.013Z,85.94
2023-05-04T03:47:03.994Z,86.57
2023-05-04T03:48:04.020Z,87.18
2023-05-04T03:49:04.020Z,87.49
2023-05-04T03:50:04.069Z,87.29
2023-05-04T03:51:03.960Z,86.98
2023-05-04T03:52:03.909Z,86.88
2023-05-04T03:53:03.936Z,86.88
2023-05-04T03:54:03.874Z,86.88
2023-05-04T03:55:03.903Z,86.77
2023-05-04T03:56:03.857Z,86.88
2023-05-04T03:57:03.868Z,86.88
2023-05-04T03:58:03.892Z,86.88
2023-05-04T03:59:03.838Z,86.88
2023-05-04T04:00:04.017Z,86.88
2023-05-04T04:01:03.827Z,87.08
2023-05-04T04:02:03.886Z,87.08
2023-05-04T04:03:03.913Z,87.08
2023-05-04T04:04:04.006Z,87.18
2023-05-04T04:05:03.807Z,87.08
2023-05-04T04:06:03.759Z,87.08
2023-05-04T04:07:03.760Z,86.88
2023-05-04T04:08:03.729Z,86.81
2023-05-04T04:09:03.749Z,87.12
2023-05-04T04:10:03.892Z,87.23
2023-05-04T04:11:03.744Z,87.74
2023-05-04T04:12:03.691Z,87.95
2023-05-04T04:13:03.738Z,87.85
2023-05-04T04:14:03.667Z,88.16
2023-05-04T04:15:03.683Z,88.26
2023-05-04T04:16:03.668Z,88.06
2023-05-04T04:17:03.665Z,87.95
2023-05-04T04:18:03.721Z,88.06
2023-05-04T04:19:03.648Z,88.06
2023-05-04T04:20:03.762Z,87.95
2023-05-04T04:21:03.636Z,87.85
2023-05-04T04:22:03.601Z,87.95
2023-05-04T04:23:03.589Z,87.85
2023-05-04T04:24:03.557Z,87.85
2023-05-04T04:25:03.585Z,87.64
2023-05-04T04:26:03.570Z,87.64
2023-05-04T04:27:03.586Z,87.85
2023-05-04T04:28:03.539Z,87.74
2023-05-04T04:29:03.525Z,87.85
2023-05-04T04:30:03.738Z,87.85
2023-05-04T04:31:03.557Z,87.74
2023-05-04T04:32:03.489Z,87.85
2023-05-04T04:33:03.548Z,88.26
2023-05-04T04:34:03.452Z,88.36
2023-05-04T04:35:03.470Z,88.26
2023-05-04T04:36:03.426Z,88.06
2023-05-04T04:37:03.437Z,87.95
2023-05-04T04:38:03.910Z,87.95
2023-05-04T04:39:03.412Z,87.95
2023-05-04T04:40:03.542Z,88.16
2023-05-04T04:41:03.418Z,88.06
2023-05-04T04:42:03.367Z,88.06
2023-05-04T04:43:03.372Z,88.06
2023-05-04T04:44:03.352Z,87.95
2023-05-04T04:45:03.365Z,87.91
2023-05-04T04:46:03.329Z,87.81
2023-05-04T04:47:03.367Z,87.70
2023-05-04T04:48:03.330Z,88.12
2023-05-04T04:49:03.330Z,88.01
2023-05-04T04:50:03.567Z,88.12
2023-05-04T04:51:03.296Z,87.81
2023-05-04T04:52:03.266Z,88.01
2023-05-04T04:53:03.282Z,87.91
2023-05-04T04:54:03.337Z,87.76
2023-05-04T04:55:03.244Z,87.97
2023-05-04T04:56:03.216Z,87.97
2023-05-04T04:57:03.247Z,87.97
2023-05-04T04:58:03.197Z,87.87
2023-05-04T04:59:03.247Z,87.87
2023-05-04T05:00:03.297Z,87.87
2023-05-04T05:01:03.248Z,88.04
2023-05-04T05:02:03.183Z,87.93
2023-05-04T05:03:03.203Z,87.93
2023-05-04T05:04:03.137Z,87.93
2023-05-04T05:05:03.201Z,87.83
2023-05-04T05:06:03.106Z,87.62
2023-05-04T05:07:03.124Z,87.83
2023-05-04T05:08:03.101Z,88.04
2023-05-04T05:09:03.111Z,87.89
2023-05-04T05:10:03.288Z,87.89
2023-05-04T05:11:03.098Z,87.89
2023-05-04T05:12:03.048Z,87.89
2023-05-04T05:13:03.109Z,87.79
2023-05-04T05:14:03.050Z,87.68
2023-05-04T05:15:03.072Z,87.79
2023-05-04T05:16:03.034Z,87.44
2023-05-04T05:17:03.115Z,87.44
2023-05-04T05:18:03.010Z,87.13
2023-05-04T05:19:02.999Z,87.13
2023-05-04T05:20:03.145Z,87.13
2023-05-04T05:21:02.994Z,86.82
2023-05-04T05:22:02.948Z,86.88
2023-05-04T05:23:02.954Z,86.78
2023-05-04T05:24:02.935Z,86.57
2023-05-04T05:25:02.942Z,86.68
2023-05-04T05:26:03.468Z,86.57
2023-05-04T05:27:02.919Z,86.47
2023-05-04T05:28:02.875Z,86.26
2023-05-04T05:29:02.897Z,86.02
2023-05-04T05:30:03.020Z,86.02
2023-05-04T05:31:02.916Z,85.91
2023-05-04T05:32:02.828Z,85.60
2023-05-04T05:33:02.920Z,85.30
2023-05-04T05:34:02.828Z,85.19
2023-05-04T05:35:02.814Z,84.99
2023-05-04T05:36:02.787Z,84.84
2023-05-04T05:37:02.812Z,85.05
2023-05-04T05:38:02.770Z,84.94
2023-05-04T05:39:02.802Z,84.84
2023-05-04T05:40:02.980Z,85.22
2023-05-04T05:41:02.771Z,85.31
2023-05-04T05:42:02.756Z,84.80
2023-05-04T05:43:02.770Z,84.19
2023-05-04T05:44:02.710Z,83.56
2023-05-04T05:45:02.723Z,83.12
2023-05-04T05:46:02.730Z,83.12
2023-05-04T05:47:02.726Z,83.32
2023-05-04T05:48:02.697Z,83.22
2023-05-04T05:49:02.694Z,83.39
2023-05-04T05:50:02.864Z,83.28
2023-05-04T05:51:02.659Z,83.49
2023-05-04T05:52:02.626Z,83.07
2023-05-04T05:53:02.651Z,82.01
2023-05-04T05:54:02.617Z,81.91
2023-05-04T05:55:03.013Z,81.81
2023-05-04T05:56:02.574Z,81.29
2023-05-04T05:57:02.577Z,80.22
2023-05-04T05:58:02.550Z,79.30
2023-05-04T05:59:02.557Z,79.36
2023-05-04T06:00:02.774Z,79.16
2023-05-04T06:01:02.540Z,79.57
2023-05-04T06:02:02.511Z,77.58
2023-05-04T06:03:02.621Z,77.06
2023-05-04T06:04:02.693Z,75.90
2023-05-04T06:05:02.555Z,75.70
2023-05-04T06:06:02.502Z,74.22
2023-05-04T06:07:01.488Z,73.30
2023-05-04T06:08:02.455Z,72.99
2023-05-04T06:09:02.454Z,72.34
2023-05-04T06:10:02.450Z,71.62
2023-05-04T06:11:02.424Z,70.15
2023-05-04T06:12:02.407Z,69.84
2023-05-04T06:13:02.446Z,68.59
2023-05-04T06:14:02.379Z,68.89
2023-05-04T06:15:02.395Z,68.65
2023-05-04T06:16:02.423Z,67.43
2023-05-04T06:17:02.376Z,65.75
2023-05-04T06:18:02.374Z,65.45
2023-05-04T06:19:02.365Z,65.11
2023-05-04T06:20:02.461Z,64.60
2023-05-04T06:21:02.320Z,64.90
2023-05-04T06:22:02.299Z,64.47
2023-05-04T06:23:02.330Z,63.24
2023-05-04T06:24:02.268Z,63.72
2023-05-04T06:25:05.270Z,62.70
2023-05-04T06:26:02.242Z,62.80
2023-05-04T06:27:02.276Z,62.57
2023-05-04T06:28:02.244Z,62.36
2023-05-04T06:29:02.237Z,61.61
2023-05-04T06:30:02.260Z,60.69
2023-05-04T06:31:02.230Z,60.80
2023-05-04T06:32:02.216Z,61.18
2023-05-04T06:33:02.258Z,60.74
2023-05-04T06:34:02.174Z,60.33
2023-05-04T06:35:02.166Z,59.89
2023-05-04T06:36:02.142Z,59.56
2023-05-04T06:37:02.157Z,59.56
2023-05-04T06:38:02.132Z,59.23
2023-05-04T06:39:02.113Z,57.78
2023-05-04T06:40:02.088Z,56.22
2023-05-04T06:41:02.096Z,55.48
2023-05-04T06:42:02.069Z,55.99
2023-05-04T06:43:02.098Z,56.07
2023-05-04T06:44:02.074Z,54.82
2023-05-04T06:45:02.058Z,53.67
2023-05-04T06:46:02.086Z,54.87
2023-05-04T06:47:02.047Z,53.63
2023-05-04T06:48:02.045Z,53.32
2023-05-04T06:49:02.024Z,52.38
2023-05-04T06:50:02.094Z,52.48
2023-05-04T06:51:03.109Z,51.54
2023-05-04T06:52:01.962Z,50.84
2023-05-04T06:53:01.978Z,51.12
2023-05-04T06:54:01.982Z,50.91
2023-05-04T06:55:01.966Z,51.32
2023-05-04T06:56:02.301Z,51.52
2023-05-04T06:57:01.958Z,51.62
2023-05-04T06:58:01.898Z,51.21
2023-05-04T06:59:01.928Z,52.44
2023-05-04T07:00:01.909Z,51.34
2023-05-04T07:01:01.907Z,51.44
2023-05-04T07:02:01.874Z,51.82
2023-05-04T07:03:01.955Z,52.84
2023-05-04T07:04:01.946Z,52.41
2023-05-04T07:05:01.889Z,49.95
2023-05-04T07:06:01.828Z,49.95
2023-05-04T07:07:01.825Z,50.96
2023-05-04T07:08:01.790Z,50.66
2023-05-04T07:09:01.823Z,50.43
2023-05-04T07:10:01.868Z,49.11
2023-05-04T07:11:01.787Z,48.59
2023-05-04T07:12:01.749Z,47.55
2023-05-04T07:13:01.806Z,47.63
2023-05-04T07:14:02.658Z,46.52
2023-05-04T07:15:01.726Z,45.69
2023-05-04T07:16:01.751Z,45.57
2023-05-04T07:17:01.733Z,45.87
2023-05-04T07:18:01.701Z,46.09
2023-05-04T07:19:01.680Z,45.99
2023-05-04T07:20:01.809Z,45.26
2023-05-04T07:21:16.365Z,45.25
2023-05-04T07:22:01.645Z,44.51
2023-05-04T07:23:01.650Z,45.22
2023-05-04T07:24:01.846Z,45.65
2023-05-04T07:25:01.619Z,46.58
2023-05-04T07:26:01.606Z,46.05
2023-05-04T07:27:01.688Z,45.95
2023-05-04T07:28:01.569Z,45.45
2023-05-04T07:29:01.588Z,46.45
2023-05-04T07:30:01.592Z,46.03
2023-05-04T07:31:01.571Z,45.61
2023-05-04T07:32:01.536Z,47.09
2023-05-04T07:33:01.586Z,45.56
2023-05-04T07:34:01.497Z,44.53
2023-05-04T07:35:01.515Z,42.50
2023-05-04T07:36:01.478Z,42.92
2023-05-04T07:37:01.523Z,43.42
2023-05-04T07:38:01.488Z,43.00
2023-05-04T07:39:01.450Z,44.41
2023-05-04T07:40:01.467Z,43.00
2023-05-04T07:41:01.441Z,43.73
2023-05-04T07:42:01.429Z,42.74
2023-05-04T07:43:01.434Z,43.22
2023-05-04T07:44:01.438Z,41.17
2023-05-04T07:45:01.377Z,41.25
2023-05-04T07:46:01.428Z,40.95
2023-05-04T07:47:01.370Z,40.64
2023-05-04T07:48:01.392Z,41.43
2023-05-04T07:49:01.351Z,40.73
2023-05-04T07:50:01.338Z,41.53
2023-05-04T07:51:01.317Z,41.63
2023-05-04T07:52:01.339Z,41.23
2023-05-04T07:53:01.297Z,40.70
2023-05-04T07:54:01.332Z,39.38
2023-05-04T07:55:00.284Z,41.19
2023-05-04T07:56:01.308Z,39.47
2023-05-04T07:57:01.253Z,38.04
2023-05-04T07:58:01.262Z,39.12
2023-05-04T07:59:01.261Z,38.53
2023-05-04T08:00:01.417Z,39.12
2023-05-04T08:01:01.220Z,37.62
2023-05-04T08:02:01.296Z,37.22
2023-05-04T08:03:01.220Z,37.02
2023-05-04T08:04:01.235Z,37.62
2023-05-04T08:05:01.202Z,37.74
2023-05-04T08:06:01.165Z,38.84
2023-05-04T08:07:01.139Z,37.74
2023-05-04T08:08:01.163Z,39.16
2023-05-04T08:09:01.134Z,38.24
2023-05-04T08:10:01.139Z,38.53
2023-05-04T08:11:15.712Z,37.18
2023-05-04T08:12:01.121Z,37.98
2023-05-04T08:13:01.114Z,36.55
2023-05-04T08:14:01.085Z,35.93
2023-05-04T08:15:01.051Z,35.23
2023-05-04T08:16:01.321Z,35.53
2023-05-04T08:17:01.043Z,35.71
2023-05-04T08:18:01.079Z,36.01
2023-05-04T08:19:01.106Z,36.53
2023-05-04T08:20:01.039Z,36.43
2023-05-04T08:21:01.046Z,37.13
2023-05-04T08:22:01.005Z,35.63
2023-05-04T08:23:00.980Z,35.61
2023-05-04T08:24:00.990Z,35.21
2023-05-04T08:25:00.973Z,35.63
2023-05-04T08:26:00.956Z,37.25
2023-05-04T08:27:08.012Z,37.87
2023-05-04T08:28:00.944Z,37.27
2023-05-04T08:29:00.916Z,36.36
2023-05-04T08:30:00.960Z,36.25
2023-05-04T08:31:00.902Z,35.83
2023-05-04T08:32:00.929Z,35.81
2023-05-04T08:33:00.983Z,36.91
2023-05-04T08:34:00.882Z,35.71
2023-05-04T08:35:00.845Z,35.81
2023-05-04T08:36:00.890Z,36.75
2023-05-04T08:37:00.823Z,37.57
2023-05-04T08:38:00.869Z,36.36
2023-05-04T08:39:00.845Z,36.55
2023-05-04T08:40:00.854Z,36.44
2023-05-04T08:41:00.773Z,38.05
2023-05-04T08:42:00.791Z,37.35
2023-05-04T08:43:00.772Z,37.16
2023-05-04T08:44:00.770Z,37.70
2023-05-04T08:45:00.733Z,37.79
2023-05-04T08:46:00.769Z,37.16
2023-05-04T08:47:00.707Z,35.94
2023-05-04T08:48:00.753Z,37.16
2023-05-04T08:49:00.712Z,37.37
2023-05-04T08:50:00.718Z,37.95
2023-05-04T08:51:00.677Z,37.35
2023-05-04T08:52:00.687Z,35.13
2023-05-04T08:53:00.722Z,36.01
2023-05-04T08:54:00.662Z,36.11
2023-05-04T08:55:00.854Z,35.19
2023-05-04T08:56:00.648Z,34.88
2023-05-04T08:57:00.620Z,34.08
2023-05-04T08:58:00.627Z,33.96
2023-05-04T08:59:00.605Z,32.85
2023-05-04T09:00:00.624Z,31.65
2023-05-04T09:01:00.634Z,32.85
2023-05-04T09:02:00.761Z,35.48
2023-05-04T09:03:00.618Z,35.38
2023-05-04T09:04:00.917Z,34.50
2023-05-04T09:05:01.135Z,35.38
2023-05-04T09:06:00.527Z,34.46
2023-05-04T09:07:00.498Z,34.75
2023-05-04T09:08:00.500Z,34.14
2023-05-04T09:09:00.485Z,33.75
2023-05-04T09:10:00.487Z,34.43
2023-05-04T09:11:00.476Z,33.93
2023-05-04T09:12:00.478Z,32.93
2023-05-04T09:13:00.464Z,31.92
2023-05-04T09:14:00.451Z,31.30
2023-05-04T09:15:00.414Z,32.93
2023-05-04T09:16:00.437Z,33.45
2023-05-04T09:17:00.451Z,32.73
2023-05-04T09:18:00.435Z,31.95
2023-05-04T09:19:00.422Z,33.39
2023-05-04T09:20:00.411Z,33.59
2023-05-04T09:21:00.339Z,33.59
2023-05-04T09:22:00.395Z,33.89
2023-05-04T09:23:00.324Z,33.06
2023-05-04T09:24:00.403Z,33.26
2023-05-04T09:25:00.300Z,33.75
2023-05-04T09:26:00.327Z,32.03
2023-05-04T09:27:00.280Z,30.92
2023-05-04T09:28:00.285Z,30.80
2023-05-04T09:29:00.269Z,31.01
2023-05-04T09:30:00.270Z,31.42
2023-05-04T09:31:00.310Z,31.72
2023-05-04T09:32:00.257Z,32.14
2023-05-04T09:33:00.305Z,33.01
2023-05-04T09:34:00.223Z,32.02
2023-05-04T09:35:00.204Z,34.01
2023-05-04T09:36:00.210Z,32.60
2023-05-04T09:37:00.189Z,31.79
2023-05-04T09:38:00.190Z,31.18
2023-05-04T09:39:00.172Z,30.77
2023-05-04T09:40:00.279Z,31.18
2023-05-04T09:41:00.136Z,30.27
2023-05-04T09:42:00.150Z,29.20
2023-05-04T09:43:00.125Z,29.98
2023-05-04T09:44:00.141Z,29.28
2023-05-04T09:45:00.136Z,29.07
2023-05-04T09:46:00.181Z,29.30
2023-05-04T09:47:00.096Z,31.12
2023-05-04T09:48:00.125Z,31.43
2023-05-04T09:49:00.054Z,31.24
2023-05-04T09:50:00.065Z,31.87
2023-05-04T09:51:00.037Z,32.45
2023-05-04T09:52:00.037Z,32.63
2023-05-04T09:53:00.104Z,32.00
2023-05-04T09:54:00.021Z,31.39
2023-05-04T09:54:59.996Z,30.56
2023-05-04T09:56:02.581Z,29.78
2023-05-04T09:56:59.974Z,29.68
2023-05-04T09:58:00.003Z,29.28
2023-05-04T09:58:59.969Z,29.68
2023-05-04T09:59:59.953Z,29.18
2023-05-04T10:00:59.944Z,28.96
2023-05-04T10:02:04.857Z,28.36
2023-05-04T10:02:59.944Z,28.34
2023-05-04T10:03:59.935Z,28.94
2023-05-04T10:04:59.927Z,28.94
2023-05-04T10:05:59.969Z,29.02
2023-05-04T10:06:59.876Z,28.86
2023-05-04T10:07:59.900Z,29.57
2023-05-04T10:08:59.867Z,30.56
2023-05-04T10:09:59.869Z,29.47
2023-05-04T10:10:59.823Z,29.05
2023-05-04T10:12:00.556Z,28.64
2023-05-04T10:12:59.831Z,29.51
2023-05-04T10:13:59.830Z,26.70
2023-05-04T10:14:59.794Z,25.99
2023-05-04T10:15:59.820Z,27.11
2023-05-04T10:16:59.763Z,28.01
2023-05-04T10:17:59.849Z,26.72
2023-05-04T10:18:59.750Z,27.71
2023-05-04T10:19:59.747Z,26.22
2023-05-04T10:20:59.722Z,26.31
2023-05-04T10:21:59.740Z,26.21
2023-05-04T10:22:59.819Z,26.31
2023-05-04T10:23:59.721Z,27.48
2023-05-04T10:24:59.677Z,27.39
2023-05-04T10:25:59.691Z,26.68
2023-05-04T10:26:59.704Z,26.38
2023-05-04T10:27:59.695Z,25.68
2023-05-04T10:28:59.634Z,27.37
2023-05-04T10:29:59.640Z,25.49
2023-05-04T10:30:59.610Z,25.97
2023-05-04T10:31:59.887Z,26.37
2023-05-04T10:32:59.612Z,27.36
2023-05-04T10:33:59.616Z,25.57
2023-05-04T10:34:59.600Z,26.55
2023-05-04T10:35:59.602Z,25.95
2023-05-04T10:36:59.554Z,24.46
2023-05-04T10:37:59.569Z,25.76
2023-05-04T10:38:59.525Z,25.55
2023-05-04T10:39:59.551Z,25.44
2023-05-04T10:40:59.519Z,25.62
2023-05-04T10:41:59.542Z,26.02
2023-05-04T10:42:59.509Z,24.54
2023-05-04T10:43:59.513Z,25.62
2023-05-04T10:44:59.495Z,24.73
2023-05-04T10:45:59.518Z,24.72
2023-05-04T10:46:59.899Z,26.91
2023-05-04T10:47:59.488Z,27.84
2023-05-04T10:48:59.428Z,27.95
2023-05-04T10:49:59.462Z,26.45
2023-05-04T10:50:59.413Z,24.68
2023-05-04T10:51:59.432Z,25.19
2023-05-04T10:53:00.091Z,25.59
2023-05-04T10:53:59.422Z,25.38
2023-05-04T10:54:59.377Z,24.88
2023-05-04T10:55:59.391Z,24.47
2023-05-04T10:56:59.356Z,23.77
2023-05-04T10:57:59.401Z,24.56
2023-05-04T10:58:59.331Z,24.36
2023-05-04T10:59:59.346Z,25.56
2023-05-04T11:00:59.343Z,25.26
2023-05-04T11:01:59.335Z,25.85
2023-05-04T11:02:59.323Z,24.87
2023-05-04T11:03:59.305Z,25.50
2023-05-04T11:04:59.271Z,26.79
2023-05-04T11:05:59.312Z,25.70
2023-05-04T11:06:59.248Z,26.08
2023-05-04T11:08:00.433Z,25.56
2023-05-04T11:08:59.229Z,26.06
2023-05-04T11:09:59.232Z,24.87
2023-05-04T11:10:59.247Z,25.35
2023-05-04T11:11:59.259Z,24.67
2023-05-04T11:12:59.204Z,26.37
2023-05-04T11:13:59.218Z,26.86
2023-05-04T11:14:59.170Z,25.77
2023-05-04T11:15:59.184Z,25.16
2023-05-04T11:16:59.156Z,24.46
2023-05-04T11:17:59.195Z,24.26
2023-05-04T11:18:59.125Z,23.46
2023-05-04T11:19:59.133Z,23.75
2023-05-04T11:20:59.129Z,22.56
2023-05-04T11:21:59.120Z,23.66
2023-05-04T11:22:59.081Z,24.55
2023-05-04T11:23:59.122Z,23.77
2023-05-04T11:24:59.073Z,24.96
2023-05-04T11:25:59.082Z,25.15
2023-05-04T11:26:59.057Z,24.45
2023-05-04T11:27:59.206Z,23.27
2023-05-04T11:28:59.048Z,22.67
2023-05-04T11:29:59.046Z,22.88
2023-05-04T11:30:59.004Z,22.60
2023-05-04T11:31:59.113Z,24.19
2023-05-04T11:32:59.054Z,22.20
2023-05-04T11:33:59.020Z,22.89
2023-05-04T11:34:58.979Z,23.58
2023-05-04T11:35:58.964Z,23.58
2023-05-04T11:36:58.951Z,23.38
2023-05-04T11:37:58.968Z,25.76
2023-05-04T11:38:58.938Z,24.47
2023-05-04T11:39:58.931Z,25.87
2023-05-04T11:40:58.910Z,25.59
2023-05-04T11:41:58.910Z,24.99
2023-05-04T11:42:59.691Z,24.78
2023-05-04T11:43:58.919Z,22.20
2023-05-04T11:44:58.884Z,22.33
2023-05-04T11:45:58.892Z,24.71
2023-05-04T11:46:58.854Z,23.41
2023-05-04T11:47:58.944Z,22.33
2023-05-04T11:48:58.812Z,22.44
2023-05-04T11:49:58.839Z,24.60
2023-05-04T11:50:58.816Z,22.81
2023-05-04T11:51:58.819Z,22.02
2023-05-04T11:52:58.779Z,21.21
2023-05-04T11:53:58.810Z,20.81
2023-05-04T11:54:58.784Z,20.62
2023-05-04T11:55:58.752Z,20.33
2023-05-04T11:56:58.765Z,20.42
2023-05-04T11:57:58.721Z,21.20
2023-05-04T11:58:58.731Z,21.00
2023-05-04T11:59:58.709Z,21.08
2023-05-04T12:00:58.732Z,21.20
2023-05-04T12:01:58.675Z,21.19
2023-05-04T12:02:58.807Z,21.40
2023-05-04T12:03:58.754Z,20.90
2023-05-04T12:04:58.665Z,21.33
2023-05-04T12:05:58.770Z,22.33
2023-05-04T12:07:01.100Z,22.14
2023-05-04T12:07:58.637Z,22.25
2023-05-04T12:08:58.628Z,21.44
2023-05-04T12:09:58.600Z,21.04
2023-05-04T12:10:58.615Z,21.33
2023-05-04T12:11:58.609Z,21.52
2023-05-04T12:12:58.725Z,21.32
2023-05-04T12:13:58.555Z,21.71
2023-05-04T12:14:58.569Z,20.32
2023-05-04T12:15:58.541Z,20.60
2023-05-04T12:16:58.632Z,20.09
2023-05-04T12:18:00.928Z,19.79
2023-05-04T12:18:58.521Z,21.26
2023-05-04T12:19:58.497Z,19.38
2023-05-04T12:20:58.516Z,19.07
2023-05-04T12:21:58.486Z,19.47
2023-05-04T12:22:58.487Z,19.67
2023-05-04T12:23:58.491Z,19.27
2023-05-04T12:24:58.454Z,19.47
2023-05-04T12:25:58.682Z,19.76
2023-05-04T12:26:58.465Z,19.77
2023-05-04T12:27:58.418Z,20.06
2023-05-04T12:28:58.448Z,20.04
2023-05-04T12:29:58.405Z,19.95
2023-05-04T12:30:58.400Z,20.46
2023-05-04T12:31:58.414Z,20.16
2023-05-04T12:32:58.401Z,20.16
2023-05-04T12:33:58.368Z,19.56
2023-05-04T12:34:58.364Z,19.45
2023-05-04T12:35:58.352Z,20.33
2023-05-04T12:36:58.368Z,19.44
2023-05-04T12:37:58.307Z,20.23
2023-05-04T12:38:58.332Z,21.11
2023-05-04T12:39:58.305Z,19.34
2023-05-04T12:40:58.290Z,20.12
2023-05-04T12:41:58.267Z,20.12
2023-05-04T12:42:58.299Z,19.74
2023-05-04T12:43:58.260Z,19.24
2023-05-04T12:44:58.264Z,19.24
2023-05-04T12:45:58.270Z,19.93
2023-05-04T12:46:58.254Z,19.74
2023-05-04T12:47:58.243Z,20.33
2023-05-04T12:48:58.226Z,20.42
2023-05-04T12:49:58.187Z,18.93
2023-05-04T12:50:58.223Z,19.93
2023-05-04T12:51:58.181Z,19.13
2023-05-04T12:52:58.248Z,19.93
2023-05-04T12:53:58.142Z,19.34
2023-05-04T12:54:58.165Z,20.14
2023-05-04T12:55:58.155Z,19.15
2023-05-04T12:56:58.152Z,18.44
2023-05-04T12:57:58.110Z,18.54
2023-05-04T12:58:58.121Z,18.65
2023-05-04T12:59:58.103Z,18.25
2023-05-04T13:00:58.157Z,18.73
2023-05-04T13:01:58.076Z,18.44
2023-05-04T13:02:58.188Z,17.54
2023-05-04T13:03:58.057Z,17.35
2023-05-04T13:04:58.068Z,18.04